sensor_id;sensor_type;location;lat;lon;timestamp;P1;durP1;ratioP1;P2;durP2;ratioP2
69625;SDS011;56847;51.984;5.088;2022-07-24T00:01:04;16.73;;;13.93;;
69625;SDS011;56847;51.984;5.088;2022-07-24T00:03:37;17.05;;;14.07;;
69625;SDS011;56847;51.984;5.088;2022-07-24T00:06:09;15.32;;;13.50;;
69625;SDS011;56847;51.984;5.088;2022-07-24T00:08:36;21.70;;;16.17;;
69625;SDS011;56847;51.984;5.088;2022-07-24T00:11:05;20.00;;;15.03;;
69625;SDS011;56847;51.984;5.088;2022-07-24T00:13:32;24.85;;;16.27;;
69625;SDS011;56847;51.984;5.088;2022-07-24T00:15:59;17.42;;;14.73;;
69625;SDS011;56847;51.984;5.088;2022-07-24T00:18:26;25.08;;;15.15;;
69625;SDS011;56847;51.984;5.088;2022-07-24T00:20:54;16.25;;;14.07;;
69625;SDS011;56847;51.984;5.088;2022-07-24T00:23:21;16.30;;;14.23;;
69625;SDS011;56847;51.984;5.088;2022-07-24T00:25:51;18.20;;;13.82;;
69625;SDS011;56847;51.984;5.088;2022-07-24T00:28:19;19.63;;;14.82;;
69625;SDS011;56847;51.984;5.088;2022-07-24T00:30:46;16.98;;;14.10;;
69625;SDS011;56847;51.984;5.088;2022-07-24T00:33:13;16.98;;;14.60;;
69625;SDS011;56847;51.984;5.088;2022-07-24T00:35:40;21.37;;;14.37;;
69625;SDS011;56847;51.984;5.088;2022-07-24T00:38:10;16.48;;;14.48;;
69625;SDS011;56847;51.984;5.088;2022-07-24T00:40:38;21.58;;;14.45;;
69625;SDS011;56847;51.984;5.088;2022-07-24T00:43:06;17.02;;;13.57;;
69625;SDS011;56847;51.984;5.088;2022-07-24T00:45:36;18.50;;;13.15;;
69625;SDS011;56847;51.984;5.088;2022-07-24T00:48:04;19.37;;;14.17;;
69625;SDS011;56847;51.984;5.088;2022-07-24T00:50:33;16.50;;;14.13;;
69625;SDS011;56847;51.984;5.088;2022-07-24T00:53:01;19.58;;;15.80;;
69625;SDS011;56847;51.984;5.088;2022-07-24T00:55:29;20.33;;;15.95;;
69625;SDS011;56847;51.984;5.088;2022-07-24T00:57:58;19.40;;;14.70;;
69625;SDS011;56847;51.984;5.088;2022-07-24T01:00:29;19.77;;;15.50;;
69625;SDS011;56847;51.984;5.088;2022-07-24T01:02:57;21.35;;;15.88;;
69625;SDS011;56847;51.984;5.088;2022-07-24T01:05:25;20.58;;;16.50;;
69625;SDS011;56847;51.984;5.088;2022-07-24T01:07:52;21.58;;;15.15;;
69625;SDS011;56847;51.984;5.088;2022-07-24T01:10:19;21.77;;;15.18;;
69625;SDS011;56847;51.984;5.088;2022-07-24T01:12:47;17.53;;;15.27;;
69625;SDS011;56847;51.984;5.088;2022-07-24T01:15:14;20.58;;;17.00;;
69625;SDS011;56847;51.984;5.088;2022-07-24T01:17:41;18.20;;;14.43;;
69625;SDS011;56847;51.984;5.088;2022-07-24T01:20:09;19.83;;;16.17;;
69625;SDS011;56847;51.984;5.088;2022-07-24T01:22:38;19.27;;;15.70;;
69625;SDS011;56847;51.984;5.088;2022-07-24T01:25:05;19.63;;;16.87;;
69625;SDS011;56847;51.984;5.088;2022-07-24T01:27:33;21.63;;;15.52;;
69625;SDS011;56847;51.984;5.088;2022-07-24T01:30:00;19.13;;;15.30;;
69625;SDS011;56847;51.984;5.088;2022-07-24T01:32:27;20.20;;;15.93;;
69625;SDS011;56847;51.984;5.088;2022-07-24T01:34:55;21.52;;;15.80;;
69625;SDS011;56847;51.984;5.088;2022-07-24T01:37:22;19.03;;;14.73;;
69625;SDS011;56847;51.984;5.088;2022-07-24T01:39:49;19.73;;;14.80;;
69625;SDS011;56847;51.984;5.088;2022-07-24T01:42:16;20.48;;;15.93;;
69625;SDS011;56847;51.984;5.088;2022-07-24T01:44:46;20.13;;;15.07;;
69625;SDS011;56847;51.984;5.088;2022-07-24T01:47:13;22.88;;;15.85;;
69625;SDS011;56847;51.984;5.088;2022-07-24T01:49:41;22.67;;;16.43;;
69625;SDS011;56847;51.984;5.088;2022-07-24T01:52:09;21.48;;;15.98;;
69625;SDS011;56847;51.984;5.088;2022-07-24T01:54:36;19.38;;;16.52;;
69625;SDS011;56847;51.984;5.088;2022-07-24T01:57:03;23.70;;;17.17;;
69625;SDS011;56847;51.984;5.088;2022-07-24T01:59:31;23.27;;;17.00;;
69625;SDS011;56847;51.984;5.088;2022-07-24T02:02:00;25.27;;;17.23;;
69625;SDS011;56847;51.984;5.088;2022-07-24T02:04:27;24.77;;;18.33;;
69625;SDS011;56847;51.984;5.088;2022-07-24T02:06:54;23.35;;;18.33;;
69625;SDS011;56847;51.984;5.088;2022-07-24T02:09:21;26.83;;;19.65;;
69625;SDS011;56847;51.984;5.088;2022-07-24T02:11:48;30.73;;;19.58;;
69625;SDS011;56847;51.984;5.088;2022-07-24T02:14:16;27.73;;;19.27;;
69625;SDS011;56847;51.984;5.088;2022-07-24T02:16:43;25.25;;;19.70;;
69625;SDS011;56847;51.984;5.088;2022-07-24T02:19:10;26.40;;;20.15;;
69625;SDS011;56847;51.984;5.088;2022-07-24T02:21:38;29.10;;;21.05;;
69625;SDS011;56847;51.984;5.088;2022-07-24T02:24:05;32.83;;;22.13;;
69625;SDS011;56847;51.984;5.088;2022-07-24T02:26:32;29.17;;;22.47;;
69625;SDS011;56847;51.984;5.088;2022-07-24T02:28:59;27.83;;;19.90;;
69625;SDS011;56847;51.984;5.088;2022-07-24T02:31:27;40.05;;;23.15;;
69625;SDS011;56847;51.984;5.088;2022-07-24T02:33:55;32.13;;;22.83;;
69625;SDS011;56847;51.984;5.088;2022-07-24T02:36:22;31.38;;;23.75;;
69625;SDS011;56847;51.984;5.088;2022-07-24T02:38:49;33.97;;;24.40;;
69625;SDS011;56847;51.984;5.088;2022-07-24T02:41:17;33.72;;;23.58;;
69625;SDS011;56847;51.984;5.088;2022-07-24T02:43:44;36.10;;;24.23;;
69625;SDS011;56847;51.984;5.088;2022-07-24T02:46:11;34.55;;;23.67;;
69625;SDS011;56847;51.984;5.088;2022-07-24T02:48:38;36.13;;;25.42;;
69625;SDS011;56847;51.984;5.088;2022-07-24T02:51:05;35.13;;;23.07;;
69625;SDS011;56847;51.984;5.088;2022-07-24T02:53:32;33.60;;;23.48;;
69625;SDS011;56847;51.984;5.088;2022-07-24T02:55:59;35.75;;;25.45;;
69625;SDS011;56847;51.984;5.088;2022-07-24T02:58:26;41.25;;;27.10;;
69625;SDS011;56847;51.984;5.088;2022-07-24T03:00:53;34.40;;;26.30;;
69625;SDS011;56847;51.984;5.088;2022-07-24T03:03:23;33.97;;;24.03;;
69625;SDS011;56847;51.984;5.088;2022-07-24T03:05:51;37.47;;;25.50;;
69625;SDS011;56847;51.984;5.088;2022-07-24T03:08:18;43.30;;;26.38;;
69625;SDS011;56847;51.984;5.088;2022-07-24T03:10:45;34.90;;;24.92;;
69625;SDS011;56847;51.984;5.088;2022-07-24T03:13:12;38.30;;;24.38;;
69625;SDS011;56847;51.984;5.088;2022-07-24T03:15:39;38.17;;;26.10;;
69625;SDS011;56847;51.984;5.088;2022-07-24T03:18:06;38.80;;;26.55;;
69625;SDS011;56847;51.984;5.088;2022-07-24T03:20:48;36.58;;;25.40;;
69625;SDS011;56847;51.984;5.088;2022-07-24T03:23:15;37.28;;;25.05;;
69625;SDS011;56847;51.984;5.088;2022-07-24T03:25:42;37.80;;;26.73;;
69625;SDS011;56847;51.984;5.088;2022-07-24T03:28:09;36.23;;;25.13;;
69625;SDS011;56847;51.984;5.088;2022-07-24T03:30:36;40.72;;;25.38;;
69625;SDS011;56847;51.984;5.088;2022-07-24T03:33:03;35.80;;;25.20;;
69625;SDS011;56847;51.984;5.088;2022-07-24T03:35:30;40.35;;;25.75;;
69625;SDS011;56847;51.984;5.088;2022-07-24T03:37:58;39.47;;;26.15;;
69625;SDS011;56847;51.984;5.088;2022-07-24T03:40:25;42.70;;;27.53;;
69625;SDS011;56847;51.984;5.088;2022-07-24T03:42:52;38.05;;;26.25;;
69625;SDS011;56847;51.984;5.088;2022-07-24T03:45:19;48.10;;;27.70;;
69625;SDS011;56847;51.984;5.088;2022-07-24T03:47:46;41.38;;;29.17;;
69625;SDS011;56847;51.984;5.088;2022-07-24T03:50:13;38.47;;;26.88;;
69625;SDS011;56847;51.984;5.088;2022-07-24T03:52:47;37.47;;;25.33;;
69625;SDS011;56847;51.984;5.088;2022-07-24T03:55:15;37.47;;;24.77;;
69625;SDS011;56847;51.984;5.088;2022-07-24T03:57:43;41.70;;;25.77;;
69625;SDS011;56847;51.984;5.088;2022-07-24T04:00:10;39.83;;;24.58;;
69625;SDS011;56847;51.984;5.088;2022-07-24T04:02:40;37.67;;;23.88;;
69625;SDS011;56847;51.984;5.088;2022-07-24T04:05:08;35.43;;;24.10;;
69625;SDS011;56847;51.984;5.088;2022-07-24T04:07:38;34.65;;;23.35;;
69625;SDS011;56847;51.984;5.088;2022-07-24T04:10:07;33.95;;;23.52;;
69625;SDS011;56847;51.984;5.088;2022-07-24T04:12:34;38.10;;;22.02;;
69625;SDS011;56847;51.984;5.088;2022-07-24T04:15:01;33.25;;;22.00;;
69625;SDS011;56847;51.984;5.088;2022-07-24T04:17:31;34.03;;;20.70;;
69625;SDS011;56847;51.984;5.088;2022-07-24T04:19:59;29.25;;;19.58;;
69625;SDS011;56847;51.984;5.088;2022-07-24T04:22:26;30.38;;;20.40;;
69625;SDS011;56847;51.984;5.088;2022-07-24T04:24:53;29.27;;;20.58;;
69625;SDS011;56847;51.984;5.088;2022-07-24T04:27:21;33.30;;;19.25;;
69625;SDS011;56847;51.984;5.088;2022-07-24T04:29:48;30.17;;;19.00;;
69625;SDS011;56847;51.984;5.088;2022-07-24T04:32:15;35.35;;;19.85;;
69625;SDS011;56847;51.984;5.088;2022-07-24T04:34:42;28.80;;;18.30;;
69625;SDS011;56847;51.984;5.088;2022-07-24T04:37:09;27.10;;;17.35;;
69625;SDS011;56847;51.984;5.088;2022-07-24T04:39:36;29.23;;;16.33;;
69625;SDS011;56847;51.984;5.088;2022-07-24T04:42:03;21.07;;;14.23;;
69625;SDS011;56847;51.984;5.088;2022-07-24T04:44:32;22.25;;;13.93;;
69625;SDS011;56847;51.984;5.088;2022-07-24T04:47:00;19.08;;;13.90;;
69625;SDS011;56847;51.984;5.088;2022-07-24T04:49:27;18.67;;;13.07;;
69625;SDS011;56847;51.984;5.088;2022-07-24T04:51:54;17.63;;;12.00;;
69625;SDS011;56847;51.984;5.088;2022-07-24T04:54:21;20.10;;;12.63;;
69625;SDS011;56847;51.984;5.088;2022-07-24T04:56:48;25.27;;;13.52;;
69625;SDS011;56847;51.984;5.088;2022-07-24T04:59:15;24.27;;;13.95;;
69625;SDS011;56847;51.984;5.088;2022-07-24T05:01:42;20.83;;;13.18;;
69625;SDS011;56847;51.984;5.088;2022-07-24T05:04:13;20.02;;;12.23;;
69625;SDS011;56847;51.984;5.088;2022-07-24T05:06:41;20.23;;;13.10;;
69625;SDS011;56847;51.984;5.088;2022-07-24T05:09:08;23.42;;;13.65;;
69625;SDS011;56847;51.984;5.088;2022-07-24T05:11:35;19.92;;;13.60;;
69625;SDS011;56847;51.984;5.088;2022-07-24T05:14:02;23.85;;;15.70;;
69625;SDS011;56847;51.984;5.088;2022-07-24T05:16:30;21.42;;;14.35;;
69625;SDS011;56847;51.984;5.088;2022-07-24T05:18:57;24.70;;;15.23;;
69625;SDS011;56847;51.984;5.088;2022-07-24T05:21:25;26.67;;;15.52;;
69625;SDS011;56847;51.984;5.088;2022-07-24T05:23:53;27.35;;;15.68;;
69625;SDS011;56847;51.984;5.088;2022-07-24T05:26:20;27.25;;;16.80;;
69625;SDS011;56847;51.984;5.088;2022-07-24T05:28:48;28.23;;;16.77;;
69625;SDS011;56847;51.984;5.088;2022-07-24T05:31:16;30.80;;;16.80;;
69625;SDS011;56847;51.984;5.088;2022-07-24T05:33:43;28.67;;;17.88;;
69625;SDS011;56847;51.984;5.088;2022-07-24T05:36:10;32.10;;;17.40;;
69625;SDS011;56847;51.984;5.088;2022-07-24T05:38:38;27.63;;;18.35;;
69625;SDS011;56847;51.984;5.088;2022-07-24T05:41:06;27.45;;;18.23;;
69625;SDS011;56847;51.984;5.088;2022-07-24T05:43:34;27.43;;;17.83;;
69625;SDS011;56847;51.984;5.088;2022-07-24T05:46:01;27.52;;;18.42;;
69625;SDS011;56847;51.984;5.088;2022-07-24T05:48:28;30.33;;;17.60;;
69625;SDS011;56847;51.984;5.088;2022-07-24T05:50:55;26.33;;;18.00;;
69625;SDS011;56847;51.984;5.088;2022-07-24T05:53:23;29.75;;;18.13;;
69625;SDS011;56847;51.984;5.088;2022-07-24T05:55:50;26.47;;;16.63;;
69625;SDS011;56847;51.984;5.088;2022-07-24T05:58:21;28.50;;;17.45;;
69625;SDS011;56847;51.984;5.088;2022-07-24T06:00:48;25.58;;;16.17;;
69625;SDS011;56847;51.984;5.088;2022-07-24T06:03:15;26.08;;;15.90;;
69625;SDS011;56847;51.984;5.088;2022-07-24T06:05:42;26.27;;;16.83;;
69625;SDS011;56847;51.984;5.088;2022-07-24T06:08:09;27.57;;;16.67;;
69625;SDS011;56847;51.984;5.088;2022-07-24T06:10:37;25.33;;;16.50;;
69625;SDS011;56847;51.984;5.088;2022-07-24T06:13:04;19.48;;;13.75;;
69625;SDS011;56847;51.984;5.088;2022-07-24T06:15:32;22.85;;;15.60;;
69625;SDS011;56847;51.984;5.088;2022-07-24T06:18:06;20.77;;;15.00;;
69625;SDS011;56847;51.984;5.088;2022-07-24T06:20:33;24.57;;;14.70;;
69625;SDS011;56847;51.984;5.088;2022-07-24T06:23:00;18.42;;;13.73;;
69625;SDS011;56847;51.984;5.088;2022-07-24T06:25:27;24.65;;;15.25;;
69625;SDS011;56847;51.984;5.088;2022-07-24T06:27:54;22.30;;;14.10;;
69625;SDS011;56847;51.984;5.088;2022-07-24T06:30:26;21.58;;;13.20;;
69625;SDS011;56847;51.984;5.088;2022-07-24T06:32:55;22.40;;;14.80;;
69625;SDS011;56847;51.984;5.088;2022-07-24T06:35:26;22.42;;;14.15;;
69625;SDS011;56847;51.984;5.088;2022-07-24T06:37:55;19.90;;;14.20;;
69625;SDS011;56847;51.984;5.088;2022-07-24T06:40:23;15.77;;;12.70;;
69625;SDS011;56847;51.984;5.088;2022-07-24T06:42:50;22.98;;;14.00;;
69625;SDS011;56847;51.984;5.088;2022-07-24T06:45:17;20.03;;;13.47;;
69625;SDS011;56847;51.984;5.088;2022-07-24T06:47:45;14.65;;;12.38;;
69625;SDS011;56847;51.984;5.088;2022-07-24T06:50:12;20.55;;;12.50;;
69625;SDS011;56847;51.984;5.088;2022-07-24T06:52:40;19.15;;;11.65;;
69625;SDS011;56847;51.984;5.088;2022-07-24T06:55:08;19.63;;;12.07;;
69625;SDS011;56847;51.984;5.088;2022-07-24T06:57:35;14.07;;;11.27;;
69625;SDS011;56847;51.984;5.088;2022-07-24T07:00:05;18.23;;;11.40;;
69625;SDS011;56847;51.984;5.088;2022-07-24T07:02:34;16.52;;;11.40;;
69625;SDS011;56847;51.984;5.088;2022-07-24T07:05:01;16.05;;;10.65;;
69625;SDS011;56847;51.984;5.088;2022-07-24T07:07:29;12.82;;;10.07;;
69625;SDS011;56847;51.984;5.088;2022-07-24T07:09:57;12.43;;;10.50;;
69625;SDS011;56847;51.984;5.088;2022-07-24T07:12:27;13.25;;;9.20;;
69625;SDS011;56847;51.984;5.088;2022-07-24T07:14:54;13.70;;;8.10;;
69625;SDS011;56847;51.984;5.088;2022-07-24T07:17:21;13.32;;;7.72;;
69625;SDS011;56847;51.984;5.088;2022-07-24T07:19:49;15.20;;;8.27;;
69625;SDS011;56847;51.984;5.088;2022-07-24T07:22:17;13.23;;;8.70;;
69625;SDS011;56847;51.984;5.088;2022-07-24T07:24:44;11.77;;;8.27;;
69625;SDS011;56847;51.984;5.088;2022-07-24T07:27:12;9.00;;;6.50;;
69625;SDS011;56847;51.984;5.088;2022-07-24T07:29:39;9.93;;;6.22;;
69625;SDS011;56847;51.984;5.088;2022-07-24T07:32:13;9.85;;;6.60;;
69625;SDS011;56847;51.984;5.088;2022-07-24T07:34:41;8.87;;;6.80;;
69625;SDS011;56847;51.984;5.088;2022-07-24T07:37:09;11.90;;;6.90;;
69625;SDS011;56847;51.984;5.088;2022-07-24T07:39:36;12.02;;;6.03;;
69625;SDS011;56847;51.984;5.088;2022-07-24T07:42:04;8.30;;;5.10;;
69625;SDS011;56847;51.984;5.088;2022-07-24T07:44:32;6.50;;;5.70;;
69625;SDS011;56847;51.984;5.088;2022-07-24T07:47:09;6.83;;;5.63;;
69625;SDS011;56847;51.984;5.088;2022-07-24T07:49:36;6.15;;;5.18;;
69625;SDS011;56847;51.984;5.088;2022-07-24T07:52:03;6.35;;;4.85;;
69625;SDS011;56847;51.984;5.088;2022-07-24T07:54:33;5.35;;;4.60;;
69625;SDS011;56847;51.984;5.088;2022-07-24T07:57:01;8.07;;;4.50;;
69625;SDS011;56847;51.984;5.088;2022-07-24T07:59:31;5.20;;;4.63;;
69625;SDS011;56847;51.984;5.088;2022-07-24T08:02:00;8.52;;;4.80;;
69625;SDS011;56847;51.984;5.088;2022-07-24T08:04:27;7.25;;;4.90;;
69625;SDS011;56847;51.984;5.088;2022-07-24T08:06:54;6.28;;;4.22;;
69625;SDS011;56847;51.984;5.088;2022-07-24T08:09:21;7.95;;;5.28;;
69625;SDS011;56847;51.984;5.088;2022-07-24T08:11:49;4.80;;;4.30;;
69625;SDS011;56847;51.984;5.088;2022-07-24T08:14:16;5.25;;;4.75;;
69625;SDS011;56847;51.984;5.088;2022-07-24T08:16:45;8.23;;;4.97;;
69625;SDS011;56847;51.984;5.088;2022-07-24T08:22:08;9.75;;;4.40;;
69625;SDS011;56847;51.984;5.088;2022-07-24T08:24:35;6.13;;;4.43;;
69625;SDS011;56847;51.984;5.088;2022-07-24T08:27:02;6.18;;;4.03;;
69625;SDS011;56847;51.984;5.088;2022-07-24T08:29:31;5.22;;;4.47;;
69625;SDS011;56847;51.984;5.088;2022-07-24T08:31:58;6.72;;;3.65;;
69625;SDS011;56847;51.984;5.088;2022-07-24T08:34:28;4.28;;;3.47;;
69625;SDS011;56847;51.984;5.088;2022-07-24T08:36:56;5.47;;;3.57;;
69625;SDS011;56847;51.984;5.088;2022-07-24T08:39:23;13.63;;;4.10;;
69625;SDS011;56847;51.984;5.088;2022-07-24T08:41:51;5.80;;;4.18;;
69625;SDS011;56847;51.984;5.088;2022-07-24T08:44:18;7.88;;;4.30;;
69625;SDS011;56847;51.984;5.088;2022-07-24T08:46:48;6.80;;;4.22;;
69625;SDS011;56847;51.984;5.088;2022-07-24T08:49:19;4.60;;;3.57;;
69625;SDS011;56847;51.984;5.088;2022-07-24T08:51:48;6.38;;;3.92;;
69625;SDS011;56847;51.984;5.088;2022-07-24T08:54:16;8.25;;;3.85;;
69625;SDS011;56847;51.984;5.088;2022-07-24T08:56:47;12.70;;;3.80;;
69625;SDS011;56847;51.984;5.088;2022-07-24T08:59:18;6.93;;;4.38;;
69625;SDS011;56847;51.984;5.088;2022-07-24T09:01:54;6.37;;;4.20;;
69625;SDS011;56847;51.984;5.088;2022-07-24T09:16:11;8.05;;;3.72;;
69625;SDS011;56847;51.984;5.088;2022-07-24T09:19:22;6.17;;;3.33;;
69625;SDS011;56847;51.984;5.088;2022-07-24T09:21:49;3.15;;;2.60;;
69625;SDS011;56847;51.984;5.088;2022-07-24T09:24:22;4.53;;;3.83;;
69625;SDS011;56847;51.984;5.088;2022-07-24T09:26:55;7.50;;;2.85;;
69625;SDS011;56847;51.984;5.088;2022-07-24T09:29:23;6.43;;;4.03;;
69625;SDS011;56847;51.984;5.088;2022-07-24T09:31:55;6.17;;;2.97;;
69625;SDS011;56847;51.984;5.088;2022-07-24T09:34:26;4.37;;;3.00;;
69625;SDS011;56847;51.984;5.088;2022-07-24T09:37:08;3.90;;;3.50;;
69625;SDS011;56847;51.984;5.088;2022-07-24T09:39:36;4.28;;;2.90;;
69625;SDS011;56847;51.984;5.088;2022-07-24T09:42:04;7.20;;;3.42;;
69625;SDS011;56847;51.984;5.088;2022-07-24T09:44:33;6.68;;;3.47;;
69625;SDS011;56847;51.984;5.088;2022-07-24T09:49:32;5.22;;;3.00;;
69625;SDS011;56847;51.984;5.088;2022-07-24T10:06:17;5.53;;;3.08;;
69625;SDS011;56847;51.984;5.088;2022-07-24T10:15:06;3.80;;;2.72;;
69625;SDS011;56847;51.984;5.088;2022-07-24T10:20:07;2.80;;;2.40;;
69625;SDS011;56847;51.984;5.088;2022-07-24T10:23:02;3.63;;;3.03;;
69625;SDS011;56847;51.984;5.088;2022-07-24T10:25:49;4.25;;;2.80;;
69625;SDS011;56847;51.984;5.088;2022-07-24T10:28:41;3.90;;;2.67;;
69625;SDS011;56847;51.984;5.088;2022-07-24T10:31:10;4.85;;;3.05;;
69625;SDS011;56847;51.984;5.088;2022-07-24T10:33:41;2.80;;;2.43;;
69625;SDS011;56847;51.984;5.088;2022-07-24T10:36:33;4.57;;;3.00;;
69625;SDS011;56847;51.984;5.088;2022-07-24T10:48:31;3.88;;;3.00;;
69625;SDS011;56847;51.984;5.088;2022-07-24T10:51:05;6.67;;;3.07;;
69625;SDS011;56847;51.984;5.088;2022-07-24T10:59:05;3.85;;;2.88;;
69625;SDS011;56847;51.984;5.088;2022-07-24T11:01:38;4.22;;;3.10;;
69625;SDS011;56847;51.984;5.088;2022-07-24T11:06:46;2.70;;;2.50;;
69625;SDS011;56847;51.984;5.088;2022-07-24T11:09:14;4.73;;;2.90;;
69625;SDS011;56847;51.984;5.088;2022-07-24T11:14:25;4.45;;;3.10;;
69625;SDS011;56847;51.984;5.088;2022-07-24T11:20:09;7.70;;;2.53;;
69625;SDS011;56847;51.984;5.088;2022-07-24T11:25:20;7.00;;;2.47;;
69625;SDS011;56847;51.984;5.088;2022-07-24T11:27:51;4.40;;;3.55;;
69625;SDS011;56847;51.984;5.088;2022-07-24T11:30:33;5.00;;;3.20;;
69625;SDS011;56847;51.984;5.088;2022-07-24T11:33:06;5.20;;;3.08;;
69625;SDS011;56847;51.984;5.088;2022-07-24T11:35:36;6.60;;;3.10;;
69625;SDS011;56847;51.984;5.088;2022-07-24T11:38:05;4.20;;;3.03;;
69625;SDS011;56847;51.984;5.088;2022-07-24T11:40:34;3.40;;;2.63;;
69625;SDS011;56847;51.984;5.088;2022-07-24T11:43:04;3.78;;;3.00;;
69625;SDS011;56847;51.984;5.088;2022-07-24T11:45:39;5.68;;;2.83;;
69625;SDS011;56847;51.984;5.088;2022-07-24T11:48:20;2.83;;;2.47;;
69625;SDS011;56847;51.984;5.088;2022-07-24T11:51:04;3.40;;;2.77;;
69625;SDS011;56847;51.984;5.088;2022-07-24T11:53:52;3.73;;;2.70;;
69625;SDS011;56847;51.984;5.088;2022-07-24T11:56:19;3.42;;;2.65;;
69625;SDS011;56847;51.984;5.088;2022-07-24T11:58:47;4.95;;;3.10;;
69625;SDS011;56847;51.984;5.088;2022-07-24T12:01:20;3.28;;;2.47;;
69625;SDS011;56847;51.984;5.088;2022-07-24T12:03:50;3.67;;;2.95;;
69625;SDS011;56847;51.984;5.088;2022-07-24T12:06:23;5.23;;;2.70;;
69625;SDS011;56847;51.984;5.088;2022-07-24T12:09:06;4.20;;;3.37;;
69625;SDS011;56847;51.984;5.088;2022-07-24T12:11:34;3.38;;;2.92;;
69625;SDS011;56847;51.984;5.088;2022-07-24T12:14:05;5.97;;;3.42;;
69625;SDS011;56847;51.984;5.088;2022-07-24T12:16:40;3.10;;;2.60;;
69625;SDS011;56847;51.984;5.088;2022-07-24T12:19:15;4.05;;;3.15;;
69625;SDS011;56847;51.984;5.088;2022-07-24T12:24:57;3.77;;;2.70;;
69625;SDS011;56847;51.984;5.088;2022-07-24T12:27:32;8.02;;;2.58;;
69625;SDS011;56847;51.984;5.088;2022-07-24T12:30:26;2.72;;;2.40;;
69625;SDS011;56847;51.984;5.088;2022-07-24T12:33:44;9.52;;;2.33;;
69625;SDS011;56847;51.984;5.088;2022-07-24T12:38:30;3.37;;;2.50;;
69625;SDS011;56847;51.984;5.088;2022-07-24T12:41:15;9.47;;;2.70;;
69625;SDS011;56847;51.984;5.088;2022-07-24T12:43:49;5.18;;;2.67;;
69625;SDS011;56847;51.984;5.088;2022-07-24T12:46:19;4.75;;;3.08;;
69625;SDS011;56847;51.984;5.088;2022-07-24T12:48:56;3.97;;;2.92;;
69625;SDS011;56847;51.984;5.088;2022-07-24T12:51:43;5.22;;;2.50;;
69625;SDS011;56847;51.984;5.088;2022-07-24T12:56:52;6.43;;;2.63;;
69625;SDS011;56847;51.984;5.088;2022-07-24T12:59:28;3.17;;;2.60;;
69625;SDS011;56847;51.984;5.088;2022-07-24T13:02:11;4.20;;;2.70;;
69625;SDS011;56847;51.984;5.088;2022-07-24T13:04:43;8.80;;;3.08;;
69625;SDS011;56847;51.984;5.088;2022-07-24T13:07:13;4.25;;;2.80;;
69625;SDS011;56847;51.984;5.088;2022-07-24T13:09:42;5.65;;;2.50;;
69625;SDS011;56847;51.984;5.088;2022-07-24T13:12:09;5.20;;;3.22;;
69625;SDS011;56847;51.984;5.088;2022-07-24T13:14:37;4.47;;;3.17;;
69625;SDS011;56847;51.984;5.088;2022-07-24T13:17:11;3.58;;;3.17;;
69625;SDS011;56847;51.984;5.088;2022-07-24T13:19:44;4.75;;;2.70;;
69625;SDS011;56847;51.984;5.088;2022-07-24T13:22:13;3.03;;;2.72;;
69625;SDS011;56847;51.984;5.088;2022-07-24T13:24:40;3.17;;;2.88;;
69625;SDS011;56847;51.984;5.088;2022-07-24T13:27:09;4.22;;;3.30;;
69625;SDS011;56847;51.984;5.088;2022-07-24T13:29:40;5.28;;;3.05;;
69625;SDS011;56847;51.984;5.088;2022-07-24T13:32:07;3.88;;;3.13;;
69625;SDS011;56847;51.984;5.088;2022-07-24T13:34:34;3.47;;;2.80;;
69625;SDS011;56847;51.984;5.088;2022-07-24T13:37:02;3.65;;;2.40;;
69625;SDS011;56847;51.984;5.088;2022-07-24T13:39:35;6.03;;;3.55;;
69625;SDS011;56847;51.984;5.088;2022-07-24T13:42:07;4.18;;;3.78;;
69625;SDS011;56847;51.984;5.088;2022-07-24T13:44:34;3.47;;;3.17;;
69625;SDS011;56847;51.984;5.088;2022-07-24T13:47:01;6.70;;;3.25;;
69625;SDS011;56847;51.984;5.088;2022-07-24T13:49:28;4.63;;;3.58;;
69625;SDS011;56847;51.984;5.088;2022-07-24T13:51:55;7.30;;;3.83;;
69625;SDS011;56847;51.984;5.088;2022-07-24T13:54:22;3.65;;;2.83;;
69625;SDS011;56847;51.984;5.088;2022-07-24T13:56:49;3.63;;;2.72;;
69625;SDS011;56847;51.984;5.088;2022-07-24T13:59:34;3.72;;;3.03;;
69625;SDS011;56847;51.984;5.088;2022-07-24T14:02:32;6.10;;;2.65;;
69625;SDS011;56847;51.984;5.088;2022-07-24T14:04:59;4.55;;;3.28;;
69625;SDS011;56847;51.984;5.088;2022-07-24T14:07:32;3.55;;;3.25;;
69625;SDS011;56847;51.984;5.088;2022-07-24T14:09:59;5.57;;;2.83;;
69625;SDS011;56847;51.984;5.088;2022-07-24T14:12:26;6.20;;;2.50;;
69625;SDS011;56847;51.984;5.088;2022-07-24T14:14:55;3.50;;;2.93;;
69625;SDS011;56847;51.984;5.088;2022-07-24T14:17:25;4.57;;;3.25;;
69625;SDS011;56847;51.984;5.088;2022-07-24T14:19:52;6.95;;;2.85;;
69625;SDS011;56847;51.984;5.088;2022-07-24T14:22:19;3.20;;;2.90;;
69625;SDS011;56847;51.984;5.088;2022-07-24T14:24:46;4.43;;;2.72;;
69625;SDS011;56847;51.984;5.088;2022-07-24T14:27:13;5.82;;;2.97;;
69625;SDS011;56847;51.984;5.088;2022-07-24T14:29:40;4.82;;;3.05;;
69625;SDS011;56847;51.984;5.088;2022-07-24T14:32:07;2.90;;;2.50;;
69625;SDS011;56847;51.984;5.088;2022-07-24T14:34:37;3.17;;;2.88;;
69625;SDS011;56847;51.984;5.088;2022-07-24T14:37:20;4.97;;;3.22;;
69625;SDS011;56847;51.984;5.088;2022-07-24T14:48:44;3.80;;;3.10;;
69625;SDS011;56847;51.984;5.088;2022-07-24T14:51:13;4.60;;;3.23;;
69625;SDS011;56847;51.984;5.088;2022-07-24T14:53:40;5.57;;;2.85;;
69625;SDS011;56847;51.984;5.088;2022-07-24T14:56:09;8.02;;;3.10;;
69625;SDS011;56847;51.984;5.088;2022-07-24T14:58:36;4.82;;;2.85;;
69625;SDS011;56847;51.984;5.088;2022-07-24T15:01:03;4.30;;;2.72;;
69625;SDS011;56847;51.984;5.088;2022-07-24T15:03:34;3.42;;;2.45;;
69625;SDS011;56847;51.984;5.088;2022-07-24T15:06:02;3.60;;;2.70;;
69625;SDS011;56847;51.984;5.088;2022-07-24T15:08:35;4.90;;;3.40;;
69625;SDS011;56847;51.984;5.088;2022-07-24T15:11:05;4.07;;;3.00;;
69625;SDS011;56847;51.984;5.088;2022-07-24T15:13:32;5.35;;;2.90;;
69625;SDS011;56847;51.984;5.088;2022-07-24T15:16:06;3.50;;;3.00;;
69625;SDS011;56847;51.984;5.088;2022-07-24T15:18:34;2.90;;;2.60;;
69625;SDS011;56847;51.984;5.088;2022-07-24T15:21:03;3.55;;;2.75;;
69625;SDS011;56847;51.984;5.088;2022-07-24T15:23:33;15.18;;;4.50;;
69625;SDS011;56847;51.984;5.088;2022-07-24T15:26:00;5.70;;;3.95;;
69625;SDS011;56847;51.984;5.088;2022-07-24T15:28:28;3.80;;;2.78;;
69625;SDS011;56847;51.984;5.088;2022-07-24T15:31:00;7.47;;;2.73;;
69625;SDS011;56847;51.984;5.088;2022-07-24T15:33:27;3.30;;;2.47;;
69625;SDS011;56847;51.984;5.088;2022-07-24T15:35:58;7.32;;;2.78;;
69625;SDS011;56847;51.984;5.088;2022-07-24T15:38:25;3.05;;;2.55;;
69625;SDS011;56847;51.984;5.088;2022-07-24T15:40:55;3.22;;;2.20;;
69625;SDS011;56847;51.984;5.088;2022-07-24T15:43:25;3.00;;;2.70;;
69625;SDS011;56847;51.984;5.088;2022-07-24T15:46:01;3.53;;;2.72;;
69625;SDS011;56847;51.984;5.088;2022-07-24T15:48:28;3.80;;;2.70;;
69625;SDS011;56847;51.984;5.088;2022-07-24T15:50:58;6.40;;;2.97;;
69625;SDS011;56847;51.984;5.088;2022-07-24T15:53:25;3.47;;;2.88;;
69625;SDS011;56847;51.984;5.088;2022-07-24T15:55:52;9.75;;;4.10;;
69625;SDS011;56847;51.984;5.088;2022-07-24T15:58:19;4.18;;;3.08;;
69625;SDS011;56847;51.984;5.088;2022-07-24T16:00:46;3.65;;;2.80;;
69625;SDS011;56847;51.984;5.088;2022-07-24T16:03:17;6.22;;;3.20;;
69625;SDS011;56847;51.984;5.088;2022-07-24T16:05:44;3.50;;;3.20;;
69625;SDS011;56847;51.984;5.088;2022-07-24T16:08:12;3.90;;;3.00;;
69625;SDS011;56847;51.984;5.088;2022-07-24T16:10:39;2.95;;;2.38;;